Lebo, Kansas
Current Conditions -  °F | °C
As of 10:53 AM on Thursday 30 Oct 2014 (Local Time) from KEMP Reporting Station
Clear Clear  
Wind Chill: 65°   Ceiling: Unl
Heat Index: 65°   Visibility: 10mi
Dew Point: 38°   Wind: 20mph
Humidity: 37%   Direction: 350°N
Pressure: 30.07"   Gusts: 28mph
Location:  38.42°N, 95.85°W
Report Text: KEMP 301553Z AUTO 35017G24KT 10SM CLR 18/03 A3007 RMK AO2 SLP184 T01830033
Loading
Personal Weather Stations






























Interactive Weather Map New forecast layout! Learn more

10-Day Weather Forecast

Advertisements
Track Severe Weather on mobile